sensor_id;sensor_type;location;lat;lon;timestamp;temperature;humidity
16655;DHT22;8441;51.344;7.022;2022-11-15T00:00:31;10.30;99.90
16655;DHT22;8441;51.344;7.022;2022-11-15T00:02:59;10.30;99.90
16655;DHT22;8441;51.344;7.022;2022-11-15T00:05:26;10.30;99.90
16655;DHT22;8441;51.344;7.022;2022-11-15T00:07:56;10.30;99.90
16655;DHT22;8441;51.344;7.022;2022-11-15T00:10:23;10.40;99.90
16655;DHT22;8441;51.344;7.022;2022-11-15T00:12:51;10.40;99.90
16655;DHT22;8441;51.344;7.022;2022-11-15T00:15:18;10.40;99.90
16655;DHT22;8441;51.344;7.022;2022-11-15T00:17:48;10.50;99.90
16655;DHT22;8441;51.344;7.022;2022-11-15T00:20:15;10.40;99.90
16655;DHT22;8441;51.344;7.022;2022-11-15T00:22:42;10.50;99.90
16655;DHT22;8441;51.344;7.022;2022-11-15T00:25:11;10.50;99.90
16655;DHT22;8441;51.344;7.022;2022-11-15T00:27:38;10.50;99.90
16655;DHT22;8441;51.344;7.022;2022-11-15T00:30:06;10.50;99.90
16655;DHT22;8441;51.344;7.022;2022-11-15T00:32:33;10.50;99.90
16655;DHT22;8441;51.344;7.022;2022-11-15T00:35:01;10.60;99.90
16655;DHT22;8441;51.344;7.022;2022-11-15T00:37:28;10.60;99.90
16655;DHT22;8441;51.344;7.022;2022-11-15T00:39:55;10.60;99.90
16655;DHT22;8441;51.344;7.022;2022-11-15T00:42:23;10.70;99.90
16655;DHT22;8441;51.344;7.022;2022-11-15T00:44:51;10.70;99.90
16655;DHT22;8441;51.344;7.022;2022-11-15T00:47:18;10.70;99.90
16655;DHT22;8441;51.344;7.022;2022-11-15T00:49:45;10.70;99.90
16655;DHT22;8441;51.344;7.022;2022-11-15T00:52:12;10.80;99.90
16655;DHT22;8441;51.344;7.022;2022-11-15T00:54:39;10.80;99.90
16655;DHT22;8441;51.344;7.022;2022-11-15T00:57:06;10.90;99.90
16655;DHT22;8441;51.344;7.022;2022-11-15T00:59:35;10.90;99.90
16655;DHT22;8441;51.344;7.022;2022-11-15T01:02:02;11.00;99.90
16655;DHT22;8441;51.344;7.022;2022-11-15T01:04:29;11.00;99.90
16655;DHT22;8441;51.344;7.022;2022-11-15T01:06:56;11.00;99.90
16655;DHT22;8441;51.344;7.022;2022-11-15T01:09:24;11.00;99.90
16655;DHT22;8441;51.344;7.022;2022-11-15T01:11:51;11.10;99.90
16655;DHT22;8441;51.344;7.022;2022-11-15T01:14:19;11.00;99.90
16655;DHT22;8441;51.344;7.022;2022-11-15T01:16:47;11.10;99.90
16655;DHT22;8441;51.344;7.022;2022-11-15T01:19:14;11.20;99.90
16655;DHT22;8441;51.344;7.022;2022-11-15T01:21:41;11.20;99.90
16655;DHT22;8441;51.344;7.022;2022-11-15T01:24:12;11.10;99.90
16655;DHT22;8441;51.344;7.022;2022-11-15T01:26:39;11.20;99.90
16655;DHT22;8441;51.344;7.022;2022-11-15T01:29:06;11.20;99.90
16655;DHT22;8441;51.344;7.022;2022-11-15T01:31:34;11.20;99.90
16655;DHT22;8441;51.344;7.022;2022-11-15T01:34:02;11.10;99.90
16655;DHT22;8441;51.344;7.022;2022-11-15T01:36:29;11.10;99.90
16655;DHT22;8441;51.344;7.022;2022-11-15T01:38:57;11.10;99.90
16655;DHT22;8441;51.344;7.022;2022-11-15T01:41:27;11.10;99.90
16655;DHT22;8441;51.344;7.022;2022-11-15T01:43:56;11.10;99.90
16655;DHT22;8441;51.344;7.022;2022-11-15T01:46:29;11.00;99.90
16655;DHT22;8441;51.344;7.022;2022-11-15T01:49:04;11.10;99.90
16655;DHT22;8441;51.344;7.022;2022-11-15T01:51:33;11.10;99.90
16655;DHT22;8441;51.344;7.022;2022-11-15T01:54:05;11.20;99.90
16655;DHT22;8441;51.344;7.022;2022-11-15T01:56:41;11.20;99.90
16655;DHT22;8441;51.344;7.022;2022-11-15T01:59:11;11.30;99.90
16655;DHT22;8441;51.344;7.022;2022-11-15T02:01:38;11.30;99.90
16655;DHT22;8441;51.344;7.022;2022-11-15T02:04:11;11.30;99.90
16655;DHT22;8441;51.344;7.022;2022-11-15T02:06:40;11.30;99.90
16655;DHT22;8441;51.344;7.022;2022-11-15T02:09:07;11.30;99.90
16655;DHT22;8441;51.344;7.022;2022-11-15T02:11:35;11.30;99.90
16655;DHT22;8441;51.344;7.022;2022-11-15T02:14:03;11.30;99.90
16655;DHT22;8441;51.344;7.022;2022-11-15T02:16:39;11.30;99.90
16655;DHT22;8441;51.344;7.022;2022-11-15T02:19:22;11.30;99.90
16655;DHT22;8441;51.344;7.022;2022-11-15T02:22:00;11.40;99.90
16655;DHT22;8441;51.344;7.022;2022-11-15T02:24:49;11.30;99.90
16655;DHT22;8441;51.344;7.022;2022-11-15T02:30:32;11.30;99.90
16655;DHT22;8441;51.344;7.022;2022-11-15T02:33:08;11.30;99.90
16655;DHT22;8441;51.344;7.022;2022-11-15T02:35:45;11.30;99.90
16655;DHT22;8441;51.344;7.022;2022-11-15T02:38:18;11.20;99.90
16655;DHT22;8441;51.344;7.022;2022-11-15T02:40:53;11.30;99.90
16655;DHT22;8441;51.344;7.022;2022-11-15T02:43:25;11.20;99.90
16655;DHT22;8441;51.344;7.022;2022-11-15T02:46:18;11.30;99.90
16655;DHT22;8441;51.344;7.022;2022-11-15T02:48:47;11.30;99.90
16655;DHT22;8441;51.344;7.022;2022-11-15T02:51:15;11.40;99.90
16655;DHT22;8441;51.344;7.022;2022-11-15T02:53:42;11.40;99.90
16655;DHT22;8441;51.344;7.022;2022-11-15T02:56:10;11.40;99.90
16655;DHT22;8441;51.344;7.022;2022-11-15T02:58:53;11.40;99.90
16655;DHT22;8441;51.344;7.022;2022-11-15T03:01:36;11.40;99.90
16655;DHT22;8441;51.344;7.022;2022-11-15T03:04:14;11.40;99.90
16655;DHT22;8441;51.344;7.022;2022-11-15T03:06:48;11.40;99.90
16655;DHT22;8441;51.344;7.022;2022-11-15T03:09:27;11.40;99.90
16655;DHT22;8441;51.344;7.022;2022-11-15T03:12:01;11.50;99.90
16655;DHT22;8441;51.344;7.022;2022-11-15T03:14:34;11.50;99.90
16655;DHT22;8441;51.344;7.022;2022-11-15T03:17:09;11.50;99.90
16655;DHT22;8441;51.344;7.022;2022-11-15T03:19:44;11.50;99.90
16655;DHT22;8441;51.344;7.022;2022-11-15T03:22:13;11.50;99.90
16655;DHT22;8441;51.344;7.022;2022-11-15T03:24:44;11.50;99.90
16655;DHT22;8441;51.344;7.022;2022-11-15T03:27:15;11.50;99.90
16655;DHT22;8441;51.344;7.022;2022-11-15T03:29:46;11.50;99.90
16655;DHT22;8441;51.344;7.022;2022-11-15T03:32:18;11.50;99.90
16655;DHT22;8441;51.344;7.022;2022-11-15T03:34:50;11.60;99.90
16655;DHT22;8441;51.344;7.022;2022-11-15T03:37:22;11.50;99.90
16655;DHT22;8441;51.344;7.022;2022-11-15T03:39:51;11.40;99.90
16655;DHT22;8441;51.344;7.022;2022-11-15T03:42:22;11.50;99.90
16655;DHT22;8441;51.344;7.022;2022-11-15T03:44:56;11.40;99.90
16655;DHT22;8441;51.344;7.022;2022-11-15T03:47:30;11.50;99.90
16655;DHT22;8441;51.344;7.022;2022-11-15T03:50:02;11.50;99.90
16655;DHT22;8441;51.344;7.022;2022-11-15T03:52:32;11.60;99.90
16655;DHT22;8441;51.344;7.022;2022-11-15T03:55:01;11.60;99.90
16655;DHT22;8441;51.344;7.022;2022-11-15T03:57:29;11.60;99.90
16655;DHT22;8441;51.344;7.022;2022-11-15T03:59:56;11.60;99.90
16655;DHT22;8441;51.344;7.022;2022-11-15T04:02:23;11.50;99.90
16655;DHT22;8441;51.344;7.022;2022-11-15T04:04:52;11.50;99.90
16655;DHT22;8441;51.344;7.022;2022-11-15T04:07:19;11.50;99.90
16655;DHT22;8441;51.344;7.022;2022-11-15T04:09:46;11.50;99.90
16655;DHT22;8441;51.344;7.022;2022-11-15T04:12:29;11.50;99.90
16655;DHT22;8441;51.344;7.022;2022-11-15T04:15:01;11.50;99.90
16655;DHT22;8441;51.344;7.022;2022-11-15T04:17:36;11.60;99.90
16655;DHT22;8441;51.344;7.022;2022-11-15T04:20:06;11.50;99.90
16655;DHT22;8441;51.344;7.022;2022-11-15T04:22:53;11.60;99.90
16655;DHT22;8441;51.344;7.022;2022-11-15T04:25:38;11.60;99.90
16655;DHT22;8441;51.344;7.022;2022-11-15T04:28:05;11.60;99.90
16655;DHT22;8441;51.344;7.022;2022-11-15T04:30:32;11.60;99.90
16655;DHT22;8441;51.344;7.022;2022-11-15T04:33:00;11.60;99.90
16655;DHT22;8441;51.344;7.022;2022-11-15T04:35:28;11.60;99.90
16655;DHT22;8441;51.344;7.022;2022-11-15T04:37:56;11.60;99.90
16655;DHT22;8441;51.344;7.022;2022-11-15T04:40:23;11.60;99.90
16655;DHT22;8441;51.344;7.022;2022-11-15T04:42:50;11.60;99.90
16655;DHT22;8441;51.344;7.022;2022-11-15T04:45:17;11.60;99.90
16655;DHT22;8441;51.344;7.022;2022-11-15T04:47:45;11.60;99.90
16655;DHT22;8441;51.344;7.022;2022-11-15T04:50:12;11.60;99.90
16655;DHT22;8441;51.344;7.022;2022-11-15T04:52:42;11.60;99.90
16655;DHT22;8441;51.344;7.022;2022-11-15T04:55:10;11.50;99.90
16655;DHT22;8441;51.344;7.022;2022-11-15T04:57:37;11.40;99.90
16655;DHT22;8441;51.344;7.022;2022-11-15T05:00:07;11.40;99.90
16655;DHT22;8441;51.344;7.022;2022-11-15T05:02:35;11.40;99.90
16655;DHT22;8441;51.344;7.022;2022-11-15T05:05:19;11.40;99.90
16655;DHT22;8441;51.344;7.022;2022-11-15T05:07:48;11.30;99.90
16655;DHT22;8441;51.344;7.022;2022-11-15T05:10:15;11.30;99.90
16655;DHT22;8441;51.344;7.022;2022-11-15T05:12:42;11.30;99.90
16655;DHT22;8441;51.344;7.022;2022-11-15T05:15:10;11.30;99.90
16655;DHT22;8441;51.344;7.022;2022-11-15T05:17:37;11.30;99.90
16655;DHT22;8441;51.344;7.022;2022-11-15T05:20:05;11.30;99.90
16655;DHT22;8441;51.344;7.022;2022-11-15T05:22:32;11.30;99.90
16655;DHT22;8441;51.344;7.022;2022-11-15T05:25:01;11.30;99.90
16655;DHT22;8441;51.344;7.022;2022-11-15T05:27:28;11.30;99.90
16655;DHT22;8441;51.344;7.022;2022-11-15T05:29:55;11.20;99.90
16655;DHT22;8441;51.344;7.022;2022-11-15T05:32:23;11.20;99.90
16655;DHT22;8441;51.344;7.022;2022-11-15T05:34:51;11.20;99.90
16655;DHT22;8441;51.344;7.022;2022-11-15T05:37:18;11.30;99.90
16655;DHT22;8441;51.344;7.022;2022-11-15T05:39:45;11.30;99.90
16655;DHT22;8441;51.344;7.022;2022-11-15T05:42:15;11.20;99.90
16655;DHT22;8441;51.344;7.022;2022-11-15T05:44:46;11.20;99.90
16655;DHT22;8441;51.344;7.022;2022-11-15T05:47:16;11.20;99.90
16655;DHT22;8441;51.344;7.022;2022-11-15T05:49:44;11.20;99.90
16655;DHT22;8441;51.344;7.022;2022-11-15T05:52:14;11.30;99.90
16655;DHT22;8441;51.344;7.022;2022-11-15T05:54:43;11.30;99.90
16655;DHT22;8441;51.344;7.022;2022-11-15T05:57:10;11.30;99.90
16655;DHT22;8441;51.344;7.022;2022-11-15T05:59:39;11.30;99.90
16655;DHT22;8441;51.344;7.022;2022-11-15T06:02:07;11.30;99.90
16655;DHT22;8441;51.344;7.022;2022-11-15T06:04:35;11.40;99.90
16655;DHT22;8441;51.344;7.022;2022-11-15T06:07:02;11.30;99.90
16655;DHT22;8441;51.344;7.022;2022-11-15T06:09:29;11.30;99.90
16655;DHT22;8441;51.344;7.022;2022-11-15T06:11:56;11.40;99.90
16655;DHT22;8441;51.344;7.022;2022-11-15T06:14:23;11.40;99.90
16655;DHT22;8441;51.344;7.022;2022-11-15T06:16:52;11.40;99.90
16655;DHT22;8441;51.344;7.022;2022-11-15T06:19:19;11.50;99.90
16655;DHT22;8441;51.344;7.022;2022-11-15T06:21:46;11.50;99.90
16655;DHT22;8441;51.344;7.022;2022-11-15T06:24:13;11.50;99.90
16655;DHT22;8441;51.344;7.022;2022-11-15T06:26:40;11.50;99.90
16655;DHT22;8441;51.344;7.022;2022-11-15T06:29:08;11.50;99.90
16655;DHT22;8441;51.344;7.022;2022-11-15T06:31:35;11.50;99.90
16655;DHT22;8441;51.344;7.022;2022-11-15T06:34:03;11.50;99.90
16655;DHT22;8441;51.344;7.022;2022-11-15T06:36:31;11.50;99.90
16655;DHT22;8441;51.344;7.022;2022-11-15T06:39:00;11.50;99.90
16655;DHT22;8441;51.344;7.022;2022-11-15T06:41:27;11.50;99.90
16655;DHT22;8441;51.344;7.022;2022-11-15T06:43:56;11.50;99.90
16655;DHT22;8441;51.344;7.022;2022-11-15T06:46:23;11.60;99.90
16655;DHT22;8441;51.344;7.022;2022-11-15T06:48:51;11.60;99.90
16655;DHT22;8441;51.344;7.022;2022-11-15T06:51:20;11.60;99.90
16655;DHT22;8441;51.344;7.022;2022-11-15T06:53:47;11.60;99.90
16655;DHT22;8441;51.344;7.022;2022-11-15T06:56:14;11.50;99.90
16655;DHT22;8441;51.344;7.022;2022-11-15T06:58:41;11.60;99.90
16655;DHT22;8441;51.344;7.022;2022-11-15T07:01:10;11.60;99.90
16655;DHT22;8441;51.344;7.022;2022-11-15T07:03:39;11.60;99.90
16655;DHT22;8441;51.344;7.022;2022-11-15T07:06:07;11.60;99.90
16655;DHT22;8441;51.344;7.022;2022-11-15T07:08:36;11.60;99.90
16655;DHT22;8441;51.344;7.022;2022-11-15T07:11:05;11.60;99.90
16655;DHT22;8441;51.344;7.022;2022-11-15T07:13:33;11.60;99.90
16655;DHT22;8441;51.344;7.022;2022-11-15T07:16:02;11.60;99.90
16655;DHT22;8441;51.344;7.022;2022-11-15T07:18:30;11.60;99.90
16655;DHT22;8441;51.344;7.022;2022-11-15T07:21:00;11.60;99.90
16655;DHT22;8441;51.344;7.022;2022-11-15T07:23:28;11.60;99.90
16655;DHT22;8441;51.344;7.022;2022-11-15T07:25:58;11.60;99.90
16655;DHT22;8441;51.344;7.022;2022-11-15T07:28:31;11.60;99.90
16655;DHT22;8441;51.344;7.022;2022-11-15T07:31:04;11.60;99.90
16655;DHT22;8441;51.344;7.022;2022-11-15T07:33:34;11.60;99.90
16655;DHT22;8441;51.344;7.022;2022-11-15T07:36:02;11.60;99.90
16655;DHT22;8441;51.344;7.022;2022-11-15T07:38:29;11.60;99.90
16655;DHT22;8441;51.344;7.022;2022-11-15T07:40:59;11.60;99.90
16655;DHT22;8441;51.344;7.022;2022-11-15T07:43:27;11.60;99.90
16655;DHT22;8441;51.344;7.022;2022-11-15T07:45:55;11.60;99.90
16655;DHT22;8441;51.344;7.022;2022-11-15T07:48:23;11.60;99.90
16655;DHT22;8441;51.344;7.022;2022-11-15T07:50:50;11.60;99.90
16655;DHT22;8441;51.344;7.022;2022-11-15T07:53:17;11.60;99.90
16655;DHT22;8441;51.344;7.022;2022-11-15T07:55:44;11.70;99.90
16655;DHT22;8441;51.344;7.022;2022-11-15T07:58:13;11.70;99.90
16655;DHT22;8441;51.344;7.022;2022-11-15T08:00:40;11.70;99.90
16655;DHT22;8441;51.344;7.022;2022-11-15T08:03:09;11.70;99.90
16655;DHT22;8441;51.344;7.022;2022-11-15T08:05:37;11.60;99.90
16655;DHT22;8441;51.344;7.022;2022-11-15T08:08:06;11.60;99.90
16655;DHT22;8441;51.344;7.022;2022-11-15T08:10:33;11.60;99.90
16655;DHT22;8441;51.344;7.022;2022-11-15T08:13:03;11.50;99.90
16655;DHT22;8441;51.344;7.022;2022-11-15T08:15:32;11.50;99.90
16655;DHT22;8441;51.344;7.022;2022-11-15T08:18:01;11.50;99.90
16655;DHT22;8441;51.344;7.022;2022-11-15T08:20:30;11.50;99.90
16655;DHT22;8441;51.344;7.022;2022-11-15T08:22:57;11.50;99.90
16655;DHT22;8441;51.344;7.022;2022-11-15T08:25:25;11.50;99.90
16655;DHT22;8441;51.344;7.022;2022-11-15T08:27:53;11.50;99.90
16655;DHT22;8441;51.344;7.022;2022-11-15T08:30:21;11.50;99.90
16655;DHT22;8441;51.344;7.022;2022-11-15T08:32:51;11.50;99.90
16655;DHT22;8441;51.344;7.022;2022-11-15T08:35:19;11.50;99.90
16655;DHT22;8441;51.344;7.022;2022-11-15T08:37:46;11.40;99.90
16655;DHT22;8441;51.344;7.022;2022-11-15T08:40:14;11.40;99.90
16655;DHT22;8441;51.344;7.022;2022-11-15T08:42:42;11.40;99.90
16655;DHT22;8441;51.344;7.022;2022-11-15T08:45:09;11.40;99.90
16655;DHT22;8441;51.344;7.022;2022-11-15T08:47:37;11.30;99.90
16655;DHT22;8441;51.344;7.022;2022-11-15T08:50:06;11.30;99.90
16655;DHT22;8441;51.344;7.022;2022-11-15T08:52:34;11.40;99.90
16655;DHT22;8441;51.344;7.022;2022-11-15T08:55:01;11.30;99.90
16655;DHT22;8441;51.344;7.022;2022-11-15T08:57:29;11.30;99.90
16655;DHT22;8441;51.344;7.022;2022-11-15T08:59:56;11.30;99.90
16655;DHT22;8441;51.344;7.022;2022-11-15T09:02:24;11.30;99.90
16655;DHT22;8441;51.344;7.022;2022-11-15T09:04:51;11.40;99.90
16655;DHT22;8441;51.344;7.022;2022-11-15T09:07:19;11.40;99.90
16655;DHT22;8441;51.344;7.022;2022-11-15T09:09:46;11.40;99.90
16655;DHT22;8441;51.344;7.022;2022-11-15T09:12:14;11.50;99.90
16655;DHT22;8441;51.344;7.022;2022-11-15T09:14:41;11.50;99.90
16655;DHT22;8441;51.344;7.022;2022-11-15T09:17:09;11.50;99.90
16655;DHT22;8441;51.344;7.022;2022-11-15T09:19:36;11.50;99.90
16655;DHT22;8441;51.344;7.022;2022-11-15T09:22:06;11.60;99.90
16655;DHT22;8441;51.344;7.022;2022-11-15T09:24:35;11.60;99.90
16655;DHT22;8441;51.344;7.022;2022-11-15T09:27:02;11.60;99.90
16655;DHT22;8441;51.344;7.022;2022-11-15T09:29:30;11.60;99.90
16655;DHT22;8441;51.344;7.022;2022-11-15T09:31:57;11.60;99.90
16655;DHT22;8441;51.344;7.022;2022-11-15T09:34:24;11.60;99.90
16655;DHT22;8441;51.344;7.022;2022-11-15T09:36:52;11.60;99.90
16655;DHT22;8441;51.344;7.022;2022-11-15T09:39:19;11.60;99.90
16655;DHT22;8441;51.344;7.022;2022-11-15T09:42:16;11.60;99.90
16655;DHT22;8441;51.344;7.022;2022-11-15T09:44:59;11.60;99.90
16655;DHT22;8441;51.344;7.022;2022-11-15T09:47:46;11.70;99.90
16655;DHT22;8441;51.344;7.022;2022-11-15T09:50:27;11.70;99.90
16655;DHT22;8441;51.344;7.022;2022-11-15T09:52:55;11.70;99.90
16655;DHT22;8441;51.344;7.022;2022-11-15T09:55:30;11.70;99.90
16655;DHT22;8441;51.344;7.022;2022-11-15T09:58:05;11.70;99.90
16655;DHT22;8441;51.344;7.022;2022-11-15T10:00:37;11.70;99.90
16655;DHT22;8441;51.344;7.022;2022-11-15T10:03:11;11.70;99.90
16655;DHT22;8441;51.344;7.022;2022-11-15T10:05:41;11.70;99.90
16655;DHT22;8441;51.344;7.022;2022-11-15T10:08:45;11.70;99.90
16655;DHT22;8441;51.344;7.022;2022-11-15T10:11:17;11.80;99.90
16655;DHT22;8441;51.344;7.022;2022-11-15T10:13:48;11.80;99.90
16655;DHT22;8441;51.344;7.022;2022-11-15T10:16:29;11.70;99.90
16655;DHT22;8441;51.344;7.022;2022-11-15T10:19:05;11.70;99.90
16655;DHT22;8441;51.344;7.022;2022-11-15T10:21:40;11.80;99.90
16655;DHT22;8441;51.344;7.022;2022-11-15T10:24:11;11.80;99.90
16655;DHT22;8441;51.344;7.022;2022-11-15T10:26:44;11.80;99.90
16655;DHT22;8441;51.344;7.022;2022-11-15T10:29:18;11.80;99.90
16655;DHT22;8441;51.344;7.022;2022-11-15T10:31:46;11.80;99.90
16655;DHT22;8441;51.344;7.022;2022-11-15T10:34:15;11.80;99.90
16655;DHT22;8441;51.344;7.022;2022-11-15T10:36:45;11.90;99.90
16655;DHT22;8441;51.344;7.022;2022-11-15T10:39:13;11.90;99.90
16655;DHT22;8441;51.344;7.022;2022-11-15T10:41:41;11.90;99.90
16655;DHT22;8441;51.344;7.022;2022-11-15T10:44:29;12.00;99.90
16655;DHT22;8441;51.344;7.022;2022-11-15T10:47:22;11.90;99.90
16655;DHT22;8441;51.344;7.022;2022-11-15T10:49:55;12.00;99.90
16655;DHT22;8441;51.344;7.022;2022-11-15T10:52:22;12.10;99.90
16655;DHT22;8441;51.344;7.022;2022-11-15T10:54:53;12.10;99.90
16655;DHT22;8441;51.344;7.022;2022-11-15T10:57:25;12.20;99.90
16655;DHT22;8441;51.344;7.022;2022-11-15T10:59:56;12.20;99.90
16655;DHT22;8441;51.344;7.022;2022-11-15T11:02:29;12.20;99.90
16655;DHT22;8441;51.344;7.022;2022-11-15T11:04:57;12.30;99.90
16655;DHT22;8441;51.344;7.022;2022-11-15T11:07:27;12.30;99.90
16655;DHT22;8441;51.344;7.022;2022-11-15T11:10:00;12.30;99.90
16655;DHT22;8441;51.344;7.022;2022-11-15T11:12:29;12.30;99.90
16655;DHT22;8441;51.344;7.022;2022-11-15T11:15:00;12.20;99.90
16655;DHT22;8441;51.344;7.022;2022-11-15T11:17:55;12.30;99.90
16655;DHT22;8441;51.344;7.022;2022-11-15T11:20:29;12.30;99.90
16655;DHT22;8441;51.344;7.022;2022-11-15T11:23:04;12.30;99.90
16655;DHT22;8441;51.344;7.022;2022-11-15T11:25:35;12.40;99.90
16655;DHT22;8441;51.344;7.022;2022-11-15T11:28:20;12.40;99.90
16655;DHT22;8441;51.344;7.022;2022-11-15T11:31:04;12.40;99.90
16655;DHT22;8441;51.344;7.022;2022-11-15T11:33:40;12.40;99.90
16655;DHT22;8441;51.344;7.022;2022-11-15T11:36:18;12.50;99.90
16655;DHT22;8441;51.344;7.022;2022-11-15T11:38:55;12.50;99.90
16655;DHT22;8441;51.344;7.022;2022-11-15T11:41:38;12.50;99.90
16655;DHT22;8441;51.344;7.022;2022-11-15T11:44:18;12.50;99.90
16655;DHT22;8441;51.344;7.022;2022-11-15T11:46:55;12.60;99.90
16655;DHT22;8441;51.344;7.022;2022-11-15T11:49:29;12.70;99.90
16655;DHT22;8441;51.344;7.022;2022-11-15T11:52:02;12.70;99.90
16655;DHT22;8441;51.344;7.022;2022-11-15T11:54:38;12.70;99.90
16655;DHT22;8441;51.344;7.022;2022-11-15T11:57:14;12.70;99.90
16655;DHT22;8441;51.344;7.022;2022-11-15T11:59:45;12.60;99.90
16655;DHT22;8441;51.344;7.022;2022-11-15T12:02:18;12.60;99.90
16655;DHT22;8441;51.344;7.022;2022-11-15T12:04:50;12.60;99.90
16655;DHT22;8441;51.344;7.022;2022-11-15T12:07:23;12.50;99.90
16655;DHT22;8441;51.344;7.022;2022-11-15T12:09:55;12.50;99.90
16655;DHT22;8441;51.344;7.022;2022-11-15T12:12:29;12.50;99.90
16655;DHT22;8441;51.344;7.022;2022-11-15T12:15:02;12.60;99.90
16655;DHT22;8441;51.344;7.022;2022-11-15T12:17:32;12.60;99.90
16655;DHT22;8441;51.344;7.022;2022-11-15T12:20:00;12.50;99.90
16655;DHT22;8441;51.344;7.022;2022-11-15T12:22:36;12.50;99.90
16655;DHT22;8441;51.344;7.022;2022-11-15T12:25:08;12.50;99.90
16655;DHT22;8441;51.344;7.022;2022-11-15T12:27:44;12.50;99.90
16655;DHT22;8441;51.344;7.022;2022-11-15T12:30:16;12.50;99.90
16655;DHT22;8441;51.344;7.022;2022-11-15T12:32:51;12.60;99.90
16655;DHT22;8441;51.344;7.022;2022-11-15T12:35:32;12.60;99.90
16655;DHT22;8441;51.344;7.022;2022-11-15T12:38:01;12.70;99.90
16655;DHT22;8441;51.344;7.022;2022-11-15T12:40:30;12.60;99.90
16655;DHT22;8441;51.344;7.022;2022-11-15T12:45:55;12.60;99.90
16655;DHT22;8441;51.344;7.022;2022-11-15T12:48:52;12.60;99.90
16655;DHT22;8441;51.344;7.022;2022-11-15T12:54:54;12.60;99.90
16655;DHT22;8441;51.344;7.022;2022-11-15T12:57:31;12.60;99.90
16655;DHT22;8441;51.344;7.022;2022-11-15T13:00:00;12.60;99.90
16655;DHT22;8441;51.344;7.022;2022-11-15T13:02:31;12.60;99.90
16655;DHT22;8441;51.344;7.022;2022-11-15T13:05:49;12.60;99.90
16655;DHT22;8441;51.344;7.022;2022-11-15T13:08:07;12.60;99.90
16655;DHT22;8441;51.344;7.022;2022-11-15T13:10:36;12.70;99.90
16655;DHT22;8441;51.344;7.022;2022-11-15T13:13:06;12.70;99.90
16655;DHT22;8441;51.344;7.022;2022-11-15T13:15:43;12.80;99.90
16655;DHT22;8441;51.344;7.022;2022-11-15T13:18:37;12.80;99.90
16655;DHT22;8441;51.344;7.022;2022-11-15T13:21:19;12.90;99.90
16655;DHT22;8441;51.344;7.022;2022-11-15T13:24:09;13.00;99.90
16655;DHT22;8441;51.344;7.022;2022-11-15T13:26:40;13.00;99.90
16655;DHT22;8441;51.344;7.022;2022-11-15T13:29:16;13.00;99.90
16655;DHT22;8441;51.344;7.022;2022-11-15T13:31:44;13.10;99.90
16655;DHT22;8441;51.344;7.022;2022-11-15T13:34:25;13.00;99.90
16655;DHT22;8441;51.344;7.022;2022-11-15T13:36:53;13.00;99.90
16655;DHT22;8441;51.344;7.022;2022-11-15T13:39:27;12.90;99.90
16655;DHT22;8441;51.344;7.022;2022-11-15T13:41:56;12.80;99.90
16655;DHT22;8441;51.344;7.022;2022-11-15T13:44:25;12.80;99.90
16655;DHT22;8441;51.344;7.022;2022-11-15T13:47:04;12.80;99.90
16655;DHT22;8441;51.344;7.022;2022-11-15T13:49:33;12.70;99.90
16655;DHT22;8441;51.344;7.022;2022-11-15T13:52:03;12.80;99.90
16655;DHT22;8441;51.344;7.022;2022-11-15T13:54:34;12.80;99.90
16655;DHT22;8441;51.344;7.022;2022-11-15T13:57:05;12.80;99.90
16655;DHT22;8441;51.344;7.022;2022-11-15T13:59:43;12.80;99.90
16655;DHT22;8441;51.344;7.022;2022-11-15T14:02:13;12.70;99.90
16655;DHT22;8441;51.344;7.022;2022-11-15T14:04:46;12.80;99.90
16655;DHT22;8441;51.344;7.022;2022-11-15T14:07:17;12.80;99.90
16655;DHT22;8441;51.344;7.022;2022-11-15T14:09:45;12.80;99.90
16655;DHT22;8441;51.344;7.022;2022-11-15T14:12:29;12.80;99.90
16655;DHT22;8441;51.344;7.022;2022-11-15T14:14:58;12.90;99.90
16655;DHT22;8441;51.344;7.022;2022-11-15T14:17:37;13.00;99.90
16655;DHT22;8441;51.344;7.022;2022-11-15T14:20:31;12.90;99.90
16655;DHT22;8441;51.344;7.022;2022-11-15T14:23:00;13.00;99.90
16655;DHT22;8441;51.344;7.022;2022-11-15T14:25:29;13.00;99.90
16655;DHT22;8441;51.344;7.022;2022-11-15T14:28:30;13.00;99.90
16655;DHT22;8441;51.344;7.022;2022-11-15T14:30:59;13.00;99.90
16655;DHT22;8441;51.344;7.022;2022-11-15T14:33:29;12.90;99.90
16655;DHT22;8441;51.344;7.022;2022-11-15T14:35:59;12.90;99.90
16655;DHT22;8441;51.344;7.022;2022-11-15T14:38:29;13.00;99.90
16655;DHT22;8441;51.344;7.022;2022-11-15T14:40:56;12.90;99.90
16655;DHT22;8441;51.344;7.022;2022-11-15T14:43:25;12.90;99.90
16655;DHT22;8441;51.344;7.022;2022-11-15T14:45:52;12.80;99.90
16655;DHT22;8441;51.344;7.022;2022-11-15T14:48:19;12.80;99.90
16655;DHT22;8441;51.344;7.022;2022-11-15T14:50:47;12.80;99.90
16655;DHT22;8441;51.344;7.022;2022-11-15T14:53:16;12.80;99.90
16655;DHT22;8441;51.344;7.022;2022-11-15T14:55:45;12.80;99.90
16655;DHT22;8441;51.344;7.022;2022-11-15T14:58:12;12.70;99.90
16655;DHT22;8441;51.344;7.022;2022-11-15T15:00:41;12.70;99.90
16655;DHT22;8441;51.344;7.022;2022-11-15T15:03:09;12.70;99.90
16655;DHT22;8441;51.344;7.022;2022-11-15T15:05:38;12.60;99.90
16655;DHT22;8441;51.344;7.022;2022-11-15T15:08:06;12.60;99.90
16655;DHT22;8441;51.344;7.022;2022-11-15T15:10:36;12.60;99.90
16655;DHT22;8441;51.344;7.022;2022-11-15T15:13:04;12.50;99.90
16655;DHT22;8441;51.344;7.022;2022-11-15T15:15:35;12.50;99.90
16655;DHT22;8441;51.344;7.022;2022-11-15T15:18:04;12.50;99.90
16655;DHT22;8441;51.344;7.022;2022-11-15T15:20:34;12.50;99.90
16655;DHT22;8441;51.344;7.022;2022-11-15T15:23:02;12.50;99.90
16655;DHT22;8441;51.344;7.022;2022-11-15T15:25:31;12.50;99.90
16655;DHT22;8441;51.344;7.022;2022-11-15T15:27:59;12.50;99.90
16655;DHT22;8441;51.344;7.022;2022-11-15T15:30:28;12.50;99.90
16655;DHT22;8441;51.344;7.022;2022-11-15T15:32:56;12.50;99.90
16655;DHT22;8441;51.344;7.022;2022-11-15T15:35:27;12.50;99.90
16655;DHT22;8441;51.344;7.022;2022-11-15T15:37:55;12.50;99.90
16655;DHT22;8441;51.344;7.022;2022-11-15T15:40:24;12.50;99.90
16655;DHT22;8441;51.344;7.022;2022-11-15T15:42:51;12.50;99.90
16655;DHT22;8441;51.344;7.022;2022-11-15T15:45:19;12.40;99.90
16655;DHT22;8441;51.344;7.022;2022-11-15T15:47:46;12.40;99.90
16655;DHT22;8441;51.344;7.022;2022-11-15T15:50:20;12.40;99.90
16655;DHT22;8441;51.344;7.022;2022-11-15T15:52:51;12.30;99.90
16655;DHT22;8441;51.344;7.022;2022-11-15T15:55:18;12.40;99.90
16655;DHT22;8441;51.344;7.022;2022-11-15T15:57:46;12.30;99.90
16655;DHT22;8441;51.344;7.022;2022-11-15T16:00:14;12.30;99.90
16655;DHT22;8441;51.344;7.022;2022-11-15T16:02:41;12.30;99.90
16655;DHT22;8441;51.344;7.022;2022-11-15T16:05:09;12.20;99.90
16655;DHT22;8441;51.344;7.022;2022-11-15T16:07:37;12.20;99.90
16655;DHT22;8441;51.344;7.022;2022-11-15T16:10:17;12.20;99.90
16655;DHT22;8441;51.344;7.022;2022-11-15T16:12:45;12.20;99.90
16655;DHT22;8441;51.344;7.022;2022-11-15T16:15:12;12.20;99.90
16655;DHT22;8441;51.344;7.022;2022-11-15T16:17:44;12.10;99.90